KUKT/UKT METAR and TAF weather

Enter ICAO airport designator
Station Type Date Time Source
KUKT METAR 2019/09/21 21:20 UTC NOAA

KUKT 212120Z AUTO 00000KT 10SM CLR 29/12 A3018 RMK A01


Station Type Date Time Source
KUKT Decoded METAR 2019/09/21 21:20 UTC NOAA

Quakertown, Quakertown Airport, PA, United States (KUKT) 40-26-06N 075-22-54W
Sep 21, 2019 - 05:20 PM EDT / 2019.09.21 2120 UTC
Wind: Calm:0
Visibility: 10 mile(s):0
Sky conditions: clear
Temperature: 84 F (29 C)
Dew Point: 53 F (12 C)
Relative Humidity: 34%
Pressure (altimeter): 30.18 in. Hg (1022 hPa)
ob: KUKT 212120Z AUTO 00000KT 10SM CLR 29/12 A3018 RMK A01
cycle: 21

Station Type Date Time Source
KUKT TAF UTC NOAA

Error!

Example: see airport list